createdAt,value
2022-12-16T00:01:25.545Z,4.30
2022-12-16T00:03:55.447Z,4.43
2022-12-16T00:06:25.147Z,3.93
2022-12-16T00:08:53.831Z,3.90
2022-12-16T00:11:25.048Z,4.60
2022-12-16T00:13:53.756Z,4.57
2022-12-16T00:16:23.949Z,4.50
2022-12-16T00:18:52.614Z,4.23
2022-12-16T00:21:21.616Z,4.77
2022-12-16T00:23:50.286Z,4.23
2022-12-16T00:26:18.899Z,4.40
2022-12-16T00:28:48.910Z,5.50
2022-12-16T00:31:17.562Z,5.83
2022-12-16T00:33:46.192Z,5.33
2022-12-16T00:36:16.129Z,5.03
2022-12-16T00:38:44.704Z,5.43
2022-12-16T00:41:13.253Z,5.65
2022-12-16T00:43:41.840Z,5.20
2022-12-16T00:46:11.915Z,5.40
2022-12-16T00:48:40.543Z,5.03
2022-12-16T00:51:09.287Z,5.10
2022-12-16T00:53:38.331Z,4.60
2022-12-16T00:56:07.921Z,5.70
2022-12-16T00:58:37.235Z,5.30
2022-12-16T01:01:05.971Z,5.23
2022-12-16T01:03:36.596Z,5.80
2022-12-16T01:06:09.253Z,4.57
2022-12-16T01:08:37.802Z,4.77
2022-12-16T01:11:06.526Z,5.57
2022-12-16T01:13:35.735Z,5.77
2022-12-16T01:16:04.664Z,5.27
2022-12-16T01:18:33.288Z,5.10
2022-12-16T01:21:05.810Z,5.33
2022-12-16T01:23:35.254Z,5.30
2022-12-16T01:26:03.971Z,6.00
2022-12-16T01:28:32.608Z,4.83
2022-12-16T01:31:02.681Z,4.83
2022-12-16T01:33:32.024Z,4.80
2022-12-16T01:36:01.697Z,4.87
2022-12-16T01:38:32.056Z,5.17
2022-12-16T01:41:00.619Z,4.77
2022-12-16T01:43:30.150Z,4.53
2022-12-16T01:46:00.736Z,4.10
2022-12-16T01:48:35.717Z,4.83
2022-12-16T01:51:07.531Z,4.40
2022-12-16T01:53:40.622Z,4.83
2022-12-16T01:56:09.730Z,4.50
2022-12-16T01:58:39.509Z,4.50
2022-12-16T02:01:09.166Z,4.60
2022-12-16T02:03:38.608Z,4.00
2022-12-16T02:06:08.355Z,4.27
2022-12-16T02:08:38.476Z,4.63
2022-12-16T02:11:10.768Z,4.13
2022-12-16T02:13:47.788Z,4.87
2022-12-16T02:16:18.795Z,5.03
2022-12-16T02:18:51.459Z,4.60
2022-12-16T02:21:34.782Z,4.27
2022-12-16T02:24:11.463Z,4.17
2022-12-16T02:26:54.007Z,4.40
2022-12-16T02:29:39.826Z,5.23
2022-12-16T02:32:12.279Z,4.20
2022-12-16T02:34:44.235Z,3.87
2022-12-16T02:37:16.423Z,4.53
2022-12-16T02:39:48.320Z,4.20
2022-12-16T02:42:18.431Z,4.13
2022-12-16T02:44:53.171Z,4.00
2022-12-16T02:47:23.180Z,3.73
2022-12-16T02:49:53.233Z,5.20
2022-12-16T02:52:22.881Z,4.63
2022-12-16T02:54:52.443Z,4.23
2022-12-16T02:57:27.240Z,4.77
2022-12-16T02:59:59.255Z,4.88
2022-12-16T03:02:32.603Z,4.88
2022-12-16T03:05:03.760Z,3.70
2022-12-16T03:07:36.494Z,4.38
2022-12-16T03:10:06.756Z,4.07
2022-12-16T03:12:35.796Z,3.80
2022-12-16T03:15:04.681Z,4.22
2022-12-16T03:17:34.691Z,4.20
2022-12-16T03:20:07.419Z,3.90
2022-12-16T03:22:38.076Z,4.13
2022-12-16T03:25:07.678Z,4.10
2022-12-16T03:27:37.718Z,3.87
2022-12-16T03:30:08.946Z,4.10
2022-12-16T03:32:40.418Z,4.38
2022-12-16T03:35:14.746Z,4.50
2022-12-16T03:37:44.927Z,4.17
2022-12-16T03:40:14.672Z,4.67
2022-12-16T03:42:44.302Z,4.40
2022-12-16T03:45:16.850Z,4.70
2022-12-16T03:47:50.567Z,4.28
2022-12-16T03:50:19.826Z,4.50
2022-12-16T03:52:48.354Z,4.33
2022-12-16T03:55:17.119Z,3.92
2022-12-16T03:57:45.853Z,3.57
2022-12-16T04:00:15.135Z,3.80
2022-12-16T04:02:43.881Z,3.60
2022-12-16T04:05:14.173Z,3.63
2022-12-16T04:07:42.844Z,3.10
2022-12-16T04:10:11.814Z,3.43
2022-12-16T04:12:57.921Z,3.33
2022-12-16T04:15:44.177Z,3.40
2022-12-16T04:18:33.443Z,3.40
2022-12-16T04:21:21.015Z,3.65
2022-12-16T04:24:08.739Z,3.57
2022-12-16T04:26:57.926Z,3.17
2022-12-16T04:29:26.531Z,4.40
2022-12-16T04:31:55.139Z,4.18
2022-12-16T04:34:26.165Z,4.40
2022-12-16T04:37:14.395Z,4.28
2022-12-16T04:40:00.588Z,4.65
2022-12-16T04:42:47.208Z,3.88
2022-12-16T04:45:33.607Z,4.40
2022-12-16T04:48:19.874Z,4.68
2022-12-16T04:51:05.919Z,4.23
2022-12-16T04:53:53.675Z,4.85
2022-12-16T04:56:39.801Z,4.17
2022-12-16T04:59:26.190Z,4.40
2022-12-16T05:02:12.763Z,4.80
2022-12-16T05:04:59.143Z,4.17
2022-12-16T05:07:45.191Z,3.13
2022-12-16T05:10:32.997Z,3.75
2022-12-16T05:13:18.999Z,3.90
2022-12-16T05:16:05.239Z,3.93
2022-12-16T05:18:51.328Z,3.17
2022-12-16T05:21:37.363Z,3.87
2022-12-16T05:24:23.888Z,3.83
2022-12-16T05:27:11.578Z,3.38
2022-12-16T05:29:57.631Z,3.47
2022-12-16T05:32:43.806Z,3.50
2022-12-16T05:35:29.952Z,3.63
2022-12-16T05:38:16.035Z,3.83
2022-12-16T05:41:02.052Z,3.65
2022-12-16T05:43:49.855Z,3.58
2022-12-16T05:46:36.082Z,3.63
2022-12-16T05:49:22.507Z,3.92
2022-12-16T05:52:11.252Z,3.40
2022-12-16T05:54:57.410Z,3.92
2022-12-16T05:57:43.813Z,3.60
2022-12-16T06:00:32.330Z,3.97
2022-12-16T06:03:18.838Z,4.07
2022-12-16T06:06:01.354Z,3.80
2022-12-16T06:08:47.848Z,4.43
2022-12-16T06:11:33.921Z,4.20
2022-12-16T06:14:19.984Z,4.10
2022-12-16T06:17:07.715Z,3.87
2022-12-16T06:19:53.951Z,3.85
2022-12-16T06:22:40.399Z,4.47
2022-12-16T06:25:26.742Z,4.40
2022-12-16T06:28:13.141Z,4.57
2022-12-16T06:30:59.252Z,3.40
2022-12-16T06:33:51.883Z,3.70
2022-12-16T06:36:40.839Z,3.70
2022-12-16T06:39:27.206Z,3.97
2022-12-16T06:42:13.331Z,3.63
2022-12-16T06:44:58.894Z,3.53
2022-12-16T06:47:45.006Z,3.47
2022-12-16T06:50:32.711Z,3.53
2022-12-16T06:53:18.747Z,3.45
2022-12-16T06:56:05.098Z,3.80
2022-12-16T06:58:51.167Z,3.53
2022-12-16T07:01:37.289Z,4.03
2022-12-16T07:04:23.423Z,3.53
2022-12-16T07:07:11.056Z,4.35
2022-12-16T07:09:57.386Z,4.27
2022-12-16T07:12:43.477Z,3.90
2022-12-16T07:15:30.256Z,3.95
2022-12-16T07:18:16.330Z,3.45
2022-12-16T07:21:02.507Z,3.60
2022-12-16T07:23:50.128Z,3.70
2022-12-16T07:26:36.875Z,4.25
2022-12-16T07:29:28.170Z,3.67
2022-12-16T07:32:14.681Z,3.90
2022-12-16T07:35:00.779Z,3.20
2022-12-16T07:37:47.135Z,3.72
2022-12-16T07:40:34.884Z,3.87
2022-12-16T07:43:21.355Z,3.83
2022-12-16T07:46:07.526Z,5.00
2022-12-16T07:48:54.071Z,5.60
2022-12-16T07:51:42.259Z,7.50
2022-12-16T07:54:28.171Z,5.13
2022-12-16T07:57:15.852Z,3.93
2022-12-16T08:00:02.248Z,4.18
2022-12-16T08:02:58.054Z,4.57
2022-12-16T08:05:44.341Z,4.65
2022-12-16T08:08:30.899Z,4.55
2022-12-16T08:11:17.039Z,5.32
2022-12-16T08:14:04.803Z,6.07
2022-12-16T08:16:51.276Z,7.35
2022-12-16T08:19:37.222Z,9.40
2022-12-16T08:22:23.417Z,5.97
2022-12-16T08:25:20.946Z,6.23
2022-12-16T08:28:12.791Z,6.20
2022-12-16T08:31:00.653Z,5.45
2022-12-16T08:33:47.010Z,5.07
2022-12-16T08:36:33.075Z,4.60
2022-12-16T08:39:19.140Z,4.40
2022-12-16T08:42:05.203Z,4.03
2022-12-16T08:44:51.307Z,4.80
2022-12-16T08:47:39.214Z,5.30
2022-12-16T08:50:25.843Z,5.23
2022-12-16T08:53:12.222Z,3.85
2022-12-16T08:55:58.427Z,4.20
2022-12-16T08:58:44.418Z,3.97
2022-12-16T09:01:42.318Z,3.90
2022-12-16T09:04:29.720Z,4.13
2022-12-16T09:07:16.127Z,3.92
2022-12-16T09:10:02.296Z,4.82
2022-12-16T09:12:48.357Z,4.80
2022-12-16T09:15:34.863Z,5.30
2022-12-16T09:18:21.063Z,4.70
2022-12-16T09:21:10.416Z,5.07
2022-12-16T09:23:56.513Z,6.07
2022-12-16T09:26:42.912Z,8.07
2022-12-16T09:29:28.849Z,13.50
2022-12-16T09:32:14.945Z,14.93
2022-12-16T09:35:13.823Z,8.55
2022-12-16T09:38:05.791Z,7.85
2022-12-16T09:40:52.124Z,8.32
2022-12-16T09:43:49.390Z,16.13
2022-12-16T09:46:38.037Z,9.65
2022-12-16T09:49:29.239Z,7.90
2022-12-16T09:52:18.519Z,7.20
2022-12-16T09:55:07.013Z,7.72
2022-12-16T09:57:55.525Z,5.93
2022-12-16T10:00:42.831Z,5.78
2022-12-16T10:03:34.881Z,5.70
2022-12-16T10:06:26.038Z,6.43
2022-12-16T10:09:16.126Z,6.40
2022-12-16T10:12:06.135Z,8.52
2022-12-16T10:14:56.671Z,8.40
2022-12-16T10:17:44.289Z,8.65
2022-12-16T10:20:35.345Z,8.02
2022-12-16T10:23:24.249Z,7.28
2022-12-16T10:26:12.525Z,8.40
2022-12-16T10:29:04.701Z,7.88
2022-12-16T10:31:51.368Z,5.80
2022-12-16T10:34:38.780Z,5.97
2022-12-16T10:37:24.864Z,5.68
2022-12-16T10:40:13.311Z,5.53
2022-12-16T10:43:04.842Z,5.30
2022-12-16T10:45:54.226Z,5.25
2022-12-16T10:48:51.132Z,5.93
2022-12-16T10:51:42.640Z,5.60
2022-12-16T10:54:36.503Z,5.85
2022-12-16T10:57:25.022Z,5.88
2022-12-16T11:00:11.196Z,6.38
2022-12-16T11:02:59.035Z,6.70
2022-12-16T11:05:55.022Z,5.13
2022-12-16T11:08:43.670Z,5.32
2022-12-16T11:11:40.609Z,5.22
2022-12-16T11:14:37.958Z,4.85
2022-12-16T11:17:32.195Z,4.40
2022-12-16T11:20:33.595Z,4.32
2022-12-16T11:23:43.774Z,5.03
2022-12-16T11:26:36.621Z,4.75
2022-12-16T11:29:24.525Z,18.60
2022-12-16T11:32:13.850Z,23.15
2022-12-16T11:35:00.275Z,9.82
2022-12-16T11:37:48.332Z,6.55
2022-12-16T11:40:35.502Z,4.43
2022-12-16T11:43:23.031Z,4.38
2022-12-16T11:46:10.645Z,3.90
2022-12-16T11:49:00.297Z,4.07
2022-12-16T11:51:47.321Z,4.28
2022-12-16T11:54:37.272Z,4.47
2022-12-16T11:57:25.373Z,4.70
2022-12-16T12:00:13.268Z,4.18
2022-12-16T12:03:02.447Z,3.88
2022-12-16T12:05:52.111Z,4.30
2022-12-16T12:08:42.509Z,3.88
2022-12-16T12:11:34.064Z,4.05
2022-12-16T12:14:24.658Z,3.97
2022-12-16T12:17:15.906Z,4.40
2022-12-16T12:20:07.438Z,3.13
2022-12-16T12:22:54.844Z,4.03
2022-12-16T12:25:45.081Z,4.25
2022-12-16T12:28:37.946Z,3.97
2022-12-16T12:31:29.103Z,5.03
2022-12-16T12:34:20.471Z,4.80
2022-12-16T12:37:10.951Z,5.90
2022-12-16T12:40:01.891Z,6.15
2022-12-16T12:42:51.838Z,4.75
2022-12-16T12:45:57.118Z,4.53
2022-12-16T12:48:44.655Z,8.23
2022-12-16T12:51:35.612Z,5.90
2022-12-16T12:54:32.906Z,3.55
2022-12-16T12:57:21.520Z,3.70
2022-12-16T13:00:12.812Z,4.00
2022-12-16T13:03:05.043Z,4.03
2022-12-16T13:05:53.449Z,3.23
2022-12-16T13:09:12.659Z,3.67
2022-12-16T13:11:59.335Z,3.88
2022-12-16T13:15:04.038Z,3.88
2022-12-16T13:18:21.803Z,4.00
2022-12-16T13:21:09.746Z,4.40
2022-12-16T13:23:56.498Z,4.23
2022-12-16T13:26:43.483Z,3.90
2022-12-16T13:29:37.077Z,4.13
2022-12-16T13:32:24.419Z,4.47
2022-12-16T13:35:30.121Z,3.57
2022-12-16T13:38:18.236Z,4.00
2022-12-16T13:41:08.119Z,4.05
2022-12-16T13:44:10.820Z,4.07
2022-12-16T13:47:01.909Z,4.38
2022-12-16T13:50:05.695Z,4.03
2022-12-16T13:52:57.084Z,3.90
2022-12-16T13:55:46.532Z,3.90
2022-12-16T13:58:36.859Z,3.57
2022-12-16T14:01:25.547Z,3.60
2022-12-16T14:04:12.050Z,3.67
2022-12-16T14:07:01.015Z,3.78
2022-12-16T14:09:52.217Z,3.72
2022-12-16T14:12:57.186Z,3.78
2022-12-16T14:15:46.431Z,3.75
2022-12-16T14:18:43.300Z,3.80
2022-12-16T14:21:32.304Z,3.55
2022-12-16T14:24:20.466Z,3.80
2022-12-16T14:27:06.780Z,4.13
2022-12-16T14:29:53.092Z,3.60
2022-12-16T14:32:47.986Z,4.13
2022-12-16T14:35:35.228Z,4.30
2022-12-16T14:38:41.368Z,4.75
2022-12-16T14:41:31.415Z,4.43
2022-12-16T14:44:17.435Z,4.15
2022-12-16T14:47:08.491Z,5.83
2022-12-16T14:49:56.082Z,5.57
2022-12-16T14:52:43.039Z,5.40
2022-12-16T14:55:34.566Z,4.88
2022-12-16T14:58:21.979Z,5.57
2022-12-16T15:01:17.575Z,4.80
2022-12-16T15:04:04.943Z,5.68
2022-12-16T15:06:54.405Z,5.60
2022-12-16T15:09:44.034Z,6.47
2022-12-16T15:12:32.009Z,7.13
2022-12-16T15:15:19.012Z,6.75
2022-12-16T15:18:08.556Z,6.68
2022-12-16T15:20:56.599Z,7.60
2022-12-16T15:23:45.588Z,7.95
2022-12-16T15:26:36.736Z,6.77
2022-12-16T15:29:22.831Z,6.90
2022-12-16T15:32:12.414Z,8.17
2022-12-16T15:35:05.769Z,6.28
2022-12-16T15:38:00.636Z,5.47
2022-12-16T15:41:00.035Z,5.38
2022-12-16T15:43:47.855Z,5.68
2022-12-16T15:46:38.158Z,5.85
2022-12-16T15:49:25.085Z,5.93
2022-12-16T15:52:11.831Z,5.43
2022-12-16T15:55:09.023Z,5.60
2022-12-16T15:57:57.018Z,5.90
2022-12-16T16:00:45.080Z,6.95
2022-12-16T16:03:39.321Z,7.43
2022-12-16T16:06:33.780Z,8.10
2022-12-16T16:09:31.460Z,8.82
2022-12-16T16:12:17.814Z,8.77
2022-12-16T16:15:05.252Z,9.53
2022-12-16T16:17:51.811Z,9.63
2022-12-16T16:20:38.258Z,9.00
2022-12-16T16:23:24.670Z,7.72
2022-12-16T16:26:10.796Z,8.30
2022-12-16T16:28:57.196Z,7.82
2022-12-16T16:31:45.243Z,8.13
2022-12-16T16:34:32.258Z,8.20
2022-12-16T16:37:18.321Z,7.53
2022-12-16T16:40:04.480Z,7.82
2022-12-16T16:42:50.658Z,7.80
2022-12-16T16:45:36.564Z,7.13
2022-12-16T16:48:28.323Z,7.97
2022-12-16T16:51:15.413Z,8.20
2022-12-16T16:53:58.136Z,7.87
2022-12-16T16:56:44.436Z,8.02
2022-12-16T16:59:31.895Z,9.48
2022-12-16T17:02:18.392Z,9.00
2022-12-16T17:05:06.275Z,8.75
2022-12-16T17:08:03.814Z,8.77
2022-12-16T17:10:50.002Z,8.25
2022-12-16T17:13:36.483Z,7.45
2022-12-16T17:16:22.783Z,7.55
2022-12-16T17:19:09.071Z,9.07
2022-12-16T17:21:56.691Z,10.57
2022-12-16T17:24:47.597Z,10.33
2022-12-16T17:27:35.790Z,11.30
2022-12-16T17:30:22.313Z,10.68
2022-12-16T17:33:08.634Z,10.77
2022-12-16T17:35:54.904Z,10.18
2022-12-16T17:38:42.344Z,9.17
2022-12-16T17:41:28.543Z,8.50
2022-12-16T17:44:14.935Z,9.52
2022-12-16T17:47:01.531Z,9.10
2022-12-16T17:49:48.065Z,9.73
2022-12-16T17:52:34.388Z,10.10
2022-12-16T17:55:22.047Z,14.90
2022-12-16T17:58:08.172Z,11.07
2022-12-16T18:00:54.894Z,8.68
2022-12-16T18:03:41.510Z,8.37
2022-12-16T18:06:27.438Z,7.43
2022-12-16T18:09:13.633Z,8.32
2022-12-16T18:12:01.352Z,7.70
2022-12-16T18:14:47.728Z,8.30
2022-12-16T18:17:34.015Z,7.00
2022-12-16T18:20:20.702Z,10.40
2022-12-16T18:23:06.939Z,8.65
2022-12-16T18:25:53.230Z,9.88
2022-12-16T18:28:41.255Z,11.15
2022-12-16T18:31:27.795Z,10.48
2022-12-16T18:34:13.934Z,10.65
2022-12-16T18:37:00.135Z,11.30
2022-12-16T18:39:46.664Z,10.27
2022-12-16T18:42:32.739Z,9.07
2022-12-16T18:45:20.139Z,8.52
2022-12-16T18:48:06.585Z,10.13
2022-12-16T18:50:52.870Z,11.00
2022-12-16T18:53:42.772Z,10.80
2022-12-16T18:56:29.278Z,9.83
2022-12-16T18:59:15.704Z,9.50
2022-12-16T19:02:03.485Z,9.10
2022-12-16T19:04:50.024Z,8.77
2022-12-16T19:07:36.055Z,10.73
2022-12-16T19:10:22.426Z,10.60
2022-12-16T19:13:08.898Z,10.18
2022-12-16T19:15:54.971Z,9.63
2022-12-16T19:18:51.082Z,9.53
2022-12-16T19:21:37.691Z,9.70
2022-12-16T19:24:24.100Z,10.65
2022-12-16T19:30:16.731Z,10.43
2022-12-16T19:33:06.678Z,9.93
2022-12-16T19:35:54.175Z,9.97
2022-12-16T19:38:40.701Z,8.97
2022-12-16T19:41:33.285Z,9.83
2022-12-16T19:44:19.483Z,8.57
2022-12-16T19:47:05.771Z,9.10
2022-12-16T19:49:52.104Z,8.23
2022-12-16T19:52:39.665Z,7.93
2022-12-16T19:55:26.831Z,7.78
2022-12-16T19:58:13.290Z,6.43
2022-12-16T20:00:59.416Z,5.67
2022-12-16T20:03:46.384Z,7.27
2022-12-16T20:06:32.998Z,6.53
2022-12-16T20:09:20.746Z,7.63
2022-12-16T20:12:07.176Z,8.33
2022-12-16T20:14:53.663Z,8.13
2022-12-16T20:17:39.944Z,7.22
2022-12-16T20:20:26.370Z,8.33
2022-12-16T20:23:14.658Z,7.67
2022-12-16T20:26:02.603Z,7.10
2022-12-16T20:28:49.015Z,8.13
2022-12-16T20:31:35.482Z,8.50
2022-12-16T20:34:21.940Z,8.23
2022-12-16T20:37:08.086Z,7.73
2022-12-16T20:39:56.681Z,8.43
2022-12-16T20:43:02.012Z,7.40
2022-12-16T20:45:48.322Z,8.30
2022-12-16T20:48:34.739Z,8.13
2022-12-16T20:51:26.774Z,9.40
2022-12-16T20:54:12.624Z,9.10
2022-12-16T20:56:58.885Z,6.30
2022-12-16T20:59:46.356Z,7.27
2022-12-16T21:05:39.231Z,6.10
2022-12-16T21:08:25.675Z,6.97
2022-12-16T21:11:14.971Z,6.70
2022-12-16T21:14:01.239Z,6.63
2022-12-16T21:16:49.069Z,6.47
2022-12-16T21:19:35.330Z,7.33
2022-12-16T21:22:21.616Z,6.90
2022-12-16T21:25:07.788Z,6.83
2022-12-16T21:27:54.860Z,6.37
2022-12-16T21:30:47.220Z,5.80
2022-12-16T21:33:37.175Z,6.60
2022-12-16T21:36:23.947Z,6.47
2022-12-16T21:39:10.326Z,5.50
2022-12-16T21:41:56.535Z,5.60
2022-12-16T21:44:56.291Z,5.23
2022-12-16T21:47:42.805Z,5.63
2022-12-16T21:50:30.377Z,4.67
2022-12-16T21:53:17.004Z,4.80
2022-12-16T21:56:03.372Z,4.27
2022-12-16T21:58:49.545Z,5.03
2022-12-16T22:01:36.850Z,4.85
2022-12-16T22:04:23.191Z,5.17
2022-12-16T22:07:10.971Z,5.50
2022-12-16T22:09:57.689Z,6.20
2022-12-16T22:12:43.892Z,5.43
2022-12-16T22:15:30.352Z,4.67
2022-12-16T22:18:17.014Z,4.87
2022-12-16T22:21:05.587Z,4.63
2022-12-16T22:23:53.279Z,4.10
2022-12-16T22:26:42.553Z,4.13
2022-12-16T22:29:29.021Z,4.80
2022-12-16T22:32:15.206Z,4.90
2022-12-16T22:35:03.264Z,4.73
2022-12-16T22:36:21.781Z,5.57
2022-12-16T22:37:50.546Z,4.30
2022-12-16T22:40:39.665Z,5.57
2022-12-16T22:43:25.737Z,5.47
2022-12-16T22:46:17.273Z,5.87
2022-12-16T22:49:05.476Z,4.57
2022-12-16T22:51:52.117Z,4.83
2022-12-16T22:54:38.479Z,9.10
2022-12-16T22:57:25.993Z,7.73
2022-12-16T23:00:12.583Z,4.73
2022-12-16T23:02:58.912Z,4.97
2022-12-16T23:05:45.526Z,4.43
2022-12-16T23:08:31.931Z,4.87
2022-12-16T23:11:18.767Z,3.60
2022-12-16T23:14:06.683Z,4.17
2022-12-16T23:19:59.679Z,4.37
2022-12-16T23:22:45.966Z,4.60
2022-12-16T23:25:50.946Z,3.77
2022-12-16T23:28:37.390Z,3.33
2022-12-16T23:31:24.929Z,3.40
2022-12-16T23:32:29.673Z,9.70
2022-12-16T23:34:11.420Z,3.10
2022-12-16T23:36:58.025Z,3.70
2022-12-16T23:39:44.319Z,3.83
2022-12-16T23:42:30.511Z,3.80
2022-12-16T23:45:16.055Z,3.33
2022-12-16T23:48:12.039Z,3.20
2022-12-16T23:51:12.662Z,3.50
2022-12-16T23:53:58.448Z,3.10
2022-12-16T23:56:45.007Z,3.20
2022-12-16T23:59:30.993Z,2.57
